createdAt,value
2022-12-16T06:03:00.699Z,53.88
2022-12-16T06:08:21.807Z,52.80
2022-12-16T06:13:42.308Z,58.35
2022-12-16T06:24:23.819Z,59.20
2022-12-16T06:29:44.318Z,60.60
2022-12-16T06:40:26.341Z,61.47
2022-12-16T06:45:47.046Z,56.17
2022-12-16T06:51:07.988Z,59.20
2022-12-16T06:56:28.409Z,52.30
2022-12-16T07:07:09.828Z,58.73
2022-12-16T07:12:30.862Z,63.47
2022-12-16T07:17:51.663Z,61.00
2022-12-16T07:23:19.238Z,52.58
2022-12-16T07:28:40.305Z,59.47
2022-12-16T07:34:01.224Z,68.55
2022-12-16T07:39:21.915Z,64.47
2022-12-16T07:44:42.464Z,74.53
2022-12-16T07:55:23.934Z,67.63
2022-12-16T08:00:44.408Z,68.20
2022-12-16T08:11:25.423Z,63.72
2022-12-16T08:22:06.648Z,66.35
2022-12-16T08:27:27.576Z,67.10
2022-12-16T08:32:48.434Z,66.68
2022-12-16T08:38:14.081Z,64.20
2022-12-16T08:43:35.704Z,69.75
2022-12-16T08:48:56.590Z,57.15
2022-12-16T08:54:30.748Z,81.03
2022-12-16T08:59:51.257Z,73.60
2022-12-16T09:05:12.092Z,85.65
2022-12-16T09:16:00.759Z,77.45
2022-12-16T09:21:21.598Z,76.68
2022-12-16T09:26:42.333Z,84.85
2022-12-16T09:32:03.349Z,95.97
2022-12-16T09:43:15.920Z,94.78
2022-12-16T09:54:12.601Z,90.28
2022-12-16T09:59:38.548Z,93.07
2022-12-16T10:04:59.255Z,97.00
2022-12-16T10:10:47.549Z,89.78
2022-12-16T10:16:35.198Z,91.20
2022-12-16T10:22:08.475Z,95.20
2022-12-16T10:27:33.394Z,107.88
2022-12-16T10:33:04.491Z,101.70
2022-12-16T10:38:43.265Z,104.65
2022-12-16T10:44:06.600Z,99.93
2022-12-16T10:49:33.667Z,91.32
2022-12-16T10:55:03.078Z,90.22
2022-12-16T11:00:36.236Z,94.63
2022-12-16T11:05:57.000Z,98.97
2022-12-16T11:11:32.234Z,98.35
2022-12-16T11:16:53.074Z,93.82
2022-12-16T11:22:34.944Z,96.80
2022-12-16T11:33:19.642Z,119.90
2022-12-16T11:38:45.995Z,113.22
2022-12-16T11:44:10.768Z,103.63
2022-12-16T11:49:50.474Z,101.80
2022-12-16T11:55:31.331Z,97.68
2022-12-16T12:01:16.772Z,96.20
2022-12-16T12:06:43.871Z,101.40
2022-12-16T12:12:13.792Z,111.22
2022-12-16T12:18:07.136Z,102.03
2022-12-16T12:23:30.336Z,110.35
2022-12-16T12:29:23.720Z,133.85
2022-12-16T12:35:04.191Z,125.72
2022-12-16T12:40:55.932Z,111.80
2022-12-16T12:46:35.153Z,101.90
2022-12-16T12:52:19.151Z,94.97
2022-12-16T12:57:44.075Z,109.43
2022-12-16T13:03:24.476Z,98.63
2022-12-16T13:09:14.798Z,97.25
2022-12-16T13:14:51.428Z,99.80
2022-12-16T13:20:13.794Z,92.55
2022-12-16T13:25:59.514Z,103.25
2022-12-16T13:31:25.832Z,100.78
2022-12-16T13:36:53.085Z,112.63
2022-12-16T13:42:19.008Z,101.63
2022-12-16T13:47:58.863Z,96.70
2022-12-16T13:53:24.212Z,95.45
2022-12-16T13:58:50.656Z,96.57
2022-12-16T14:04:12.460Z,96.63
2022-12-16T14:09:53.820Z,91.30
2022-12-16T14:15:24.355Z,94.07
2022-12-16T14:20:54.927Z,104.40
2022-12-16T14:26:17.311Z,106.97
2022-12-16T14:31:54.508Z,97.18
2022-12-16T14:37:19.371Z,97.32
2022-12-16T14:42:47.025Z,95.72
2022-12-16T14:48:07.954Z,103.20
2022-12-16T14:53:40.140Z,103.53
2022-12-16T14:59:00.894Z,106.28
2022-12-16T15:04:31.369Z,99.43
2022-12-16T15:10:00.474Z,110.07
2022-12-16T15:15:26.198Z,102.35
2022-12-16T15:20:51.313Z,103.75
2022-12-16T15:26:16.628Z,112.20
2022-12-16T15:32:04.889Z,104.70
2022-12-16T15:37:38.368Z,102.57
2022-12-16T15:42:59.019Z,110.93
2022-12-16T15:48:31.380Z,116.72
2022-12-16T15:53:56.677Z,105.85
2022-12-16T15:59:33.048Z,148.88
2022-12-16T16:04:53.928Z,121.32
2022-12-16T16:10:41.471Z,107.43
2022-12-16T16:16:02.258Z,106.70
2022-12-16T16:21:23.166Z,109.28
2022-12-16T16:26:46.478Z,104.72
2022-12-16T16:32:07.546Z,103.57
2022-12-16T16:42:52.200Z,96.05
2022-12-16T16:48:23.124Z,111.00
2022-12-16T16:53:43.634Z,103.97
2022-12-16T16:59:04.448Z,95.28
2022-12-16T17:04:39.100Z,107.93
2022-12-16T17:10:00.004Z,100.93
2022-12-16T17:15:20.816Z,108.38
2022-12-16T17:20:41.763Z,109.05
2022-12-16T17:26:02.455Z,95.55
2022-12-16T17:31:23.621Z,112.45
2022-12-16T17:36:44.893Z,95.88
2022-12-16T17:42:05.733Z,107.45
2022-12-16T17:47:27.717Z,103.82
2022-12-16T17:52:49.109Z,104.05
2022-12-16T17:58:10.026Z,109.63
2022-12-16T18:03:31.067Z,100.32
2022-12-16T18:08:52.289Z,105.63
2022-12-16T18:14:12.808Z,116.85
2022-12-16T18:19:34.653Z,110.90
2022-12-16T18:24:55.850Z,106.25
2022-12-16T18:30:16.733Z,104.82
2022-12-16T18:35:37.724Z,113.78
2022-12-16T18:46:18.611Z,120.35
2022-12-16T18:51:39.468Z,108.30
2022-12-16T18:57:00.153Z,121.03
2022-12-16T19:02:21.085Z,107.72
2022-12-16T19:13:02.478Z,116.28
2022-12-16T19:18:23.979Z,123.00
2022-12-16T19:23:45.990Z,126.65
2022-12-16T19:29:06.783Z,133.25
2022-12-16T19:34:27.592Z,120.78
2022-12-16T19:39:48.460Z,122.50
2022-12-16T19:45:09.273Z,124.30
2022-12-16T19:50:30.173Z,116.93
2022-12-16T19:55:53.042Z,130.75
2022-12-16T20:01:13.990Z,126.43
2022-12-16T20:06:35.049Z,109.38
2022-12-16T20:17:16.754Z,126.25
2022-12-16T20:22:37.409Z,131.07
2022-12-16T20:27:58.462Z,125.10
2022-12-16T20:38:40.042Z,136.27
2022-12-16T20:44:00.900Z,134.77
2022-12-16T20:49:21.752Z,148.10
2022-12-16T20:54:42.535Z,139.73
2022-12-16T21:00:03.366Z,154.45
2022-12-16T21:05:24.797Z,158.18
2022-12-16T21:10:45.675Z,152.88
2022-12-16T21:16:06.472Z,177.15
2022-12-16T21:21:27.208Z,175.80
2022-12-16T21:26:48.119Z,158.77
2022-12-16T21:32:09.164Z,160.80
2022-12-16T21:37:30.044Z,158.43
2022-12-16T21:42:50.489Z,156.63
2022-12-16T21:48:12.855Z,144.95
2022-12-16T21:58:57.037Z,152.40
2022-12-16T22:04:18.005Z,163.55
2022-12-16T22:09:38.831Z,175.95
2022-12-16T22:14:59.489Z,149.85
2022-12-16T22:20:20.247Z,199.48
2022-12-16T22:25:41.042Z,203.88
2022-12-16T22:31:01.908Z,236.45
2022-12-16T22:36:24.221Z,217.07
2022-12-16T22:41:45.020Z,210.82
